sensor_id;sensor_type;location;lat;lon;timestamp;P1;durP1;ratioP1;P2;durP2;ratioP2
50733;SDS011;36701;51.798;19.474;2023-04-12T02:00:49;15.63;;;9.10;;
50733;SDS011;36701;51.798;19.474;2023-04-12T02:03:16;17.62;;;10.57;;
50733;SDS011;36701;51.798;19.474;2023-04-12T02:05:44;15.95;;;9.10;;
50733;SDS011;36701;51.798;19.474;2023-04-12T02:08:11;18.73;;;10.07;;
50733;SDS011;36701;51.798;19.474;2023-04-12T02:10:37;17.62;;;10.38;;
50733;SDS011;36701;51.798;19.474;2023-04-12T02:13:05;18.55;;;10.32;;
50733;SDS011;36701;51.798;19.474;2023-04-12T02:15:31;19.73;;;10.68;;
50733;SDS011;36701;51.798;19.474;2023-04-12T02:17:58;15.90;;;10.07;;
50733;SDS011;36701;51.798;19.474;2023-04-12T02:20:25;16.37;;;10.38;;
50733;SDS011;36701;51.798;19.474;2023-04-12T02:22:52;21.50;;;9.82;;
50733;SDS011;36701;51.798;19.474;2023-04-12T02:25:18;17.48;;;9.65;;
50733;SDS011;36701;51.798;19.474;2023-04-12T02:27:44;18.02;;;10.07;;
50733;SDS011;36701;51.798;19.474;2023-04-12T02:30:11;16.92;;;9.38;;
50733;SDS011;36701;51.798;19.474;2023-04-12T02:32:38;16.90;;;11.00;;
50733;SDS011;36701;51.798;19.474;2023-04-12T02:35:12;15.43;;;9.25;;
50733;SDS011;36701;51.798;19.474;2023-04-12T02:37:39;17.40;;;9.75;;
50733;SDS011;36701;51.798;19.474;2023-04-12T02:40:06;19.90;;;11.23;;
50733;SDS011;36701;51.798;19.474;2023-04-12T02:42:37;17.67;;;10.88;;
50733;SDS011;36701;51.798;19.474;2023-04-12T02:45:04;18.87;;;10.65;;
50733;SDS011;36701;51.798;19.474;2023-04-12T02:47:30;17.25;;;10.43;;
50733;SDS011;36701;51.798;19.474;2023-04-12T02:49:56;15.07;;;8.93;;
50733;SDS011;36701;51.798;19.474;2023-04-12T02:52:23;16.35;;;9.88;;
50733;SDS011;36701;51.798;19.474;2023-04-12T02:54:50;18.05;;;11.55;;
50733;SDS011;36701;51.798;19.474;2023-04-12T02:57:17;21.77;;;10.52;;
50733;SDS011;36701;51.798;19.474;2023-04-12T02:59:46;16.98;;;9.38;;
50733;SDS011;36701;51.798;19.474;2023-04-12T03:02:13;17.62;;;10.02;;
50733;SDS011;36701;51.798;19.474;2023-04-12T03:04:40;15.90;;;10.75;;
50733;SDS011;36701;51.798;19.474;2023-04-12T03:07:08;17.80;;;9.18;;
50733;SDS011;36701;51.798;19.474;2023-04-12T03:09:34;24.83;;;12.02;;
50733;SDS011;36701;51.798;19.474;2023-04-12T03:12:04;17.70;;;9.98;;
50733;SDS011;36701;51.798;19.474;2023-04-12T03:14:31;18.10;;;10.25;;
50733;SDS011;36701;51.798;19.474;2023-04-12T03:16:58;24.23;;;9.93;;
50733;SDS011;36701;51.798;19.474;2023-04-12T03:19:24;17.70;;;9.05;;
50733;SDS011;36701;51.798;19.474;2023-04-12T03:21:50;20.92;;;10.95;;
50733;SDS011;36701;51.798;19.474;2023-04-12T03:24:17;16.20;;;9.82;;
50733;SDS011;36701;51.798;19.474;2023-04-12T03:26:44;14.80;;;9.63;;
50733;SDS011;36701;51.798;19.474;2023-04-12T03:29:10;16.60;;;10.18;;
50733;SDS011;36701;51.798;19.474;2023-04-12T03:31:37;15.00;;;9.88;;
50733;SDS011;36701;51.798;19.474;2023-04-12T03:34:03;16.95;;;11.30;;
50733;SDS011;36701;51.798;19.474;2023-04-12T03:36:29;18.17;;;10.57;;
50733;SDS011;36701;51.798;19.474;2023-04-12T03:38:56;18.20;;;10.75;;
50733;SDS011;36701;51.798;19.474;2023-04-12T03:41:23;17.05;;;10.20;;
50733;SDS011;36701;51.798;19.474;2023-04-12T03:43:49;21.50;;;10.68;;
50733;SDS011;36701;51.798;19.474;2023-04-12T03:46:15;18.85;;;11.00;;
50733;SDS011;36701;51.798;19.474;2023-04-12T03:48:42;18.67;;;9.90;;
50733;SDS011;36701;51.798;19.474;2023-04-12T03:51:09;18.17;;;11.20;;
50733;SDS011;36701;51.798;19.474;2023-04-12T03:53:37;22.83;;;10.63;;
50733;SDS011;36701;51.798;19.474;2023-04-12T03:56:04;18.45;;;10.73;;
50733;SDS011;36701;51.798;19.474;2023-04-12T03:58:30;19.37;;;10.88;;
50733;SDS011;36701;51.798;19.474;2023-04-12T04:01:01;17.40;;;10.20;;
50733;SDS011;36701;51.798;19.474;2023-04-12T04:03:32;32.90;;;14.77;;
50733;SDS011;36701;51.798;19.474;2023-04-12T04:06:01;18.83;;;10.02;;
50733;SDS011;36701;51.798;19.474;2023-04-12T04:08:29;16.37;;;10.10;;
50733;SDS011;36701;51.798;19.474;2023-04-12T04:10:58;18.15;;;10.95;;
50733;SDS011;36701;51.798;19.474;2023-04-12T04:13:25;16.50;;;11.35;;
50733;SDS011;36701;51.798;19.474;2023-04-12T04:15:58;16.90;;;11.32;;
50733;SDS011;36701;51.798;19.474;2023-04-12T04:18:26;21.75;;;11.80;;
50733;SDS011;36701;51.798;19.474;2023-04-12T04:20:52;19.98;;;10.93;;
50733;SDS011;36701;51.798;19.474;2023-04-12T04:23:18;21.65;;;11.20;;
50733;SDS011;36701;51.798;19.474;2023-04-12T04:25:45;19.60;;;10.57;;
50733;SDS011;36701;51.798;19.474;2023-04-12T04:28:18;20.25;;;11.70;;
50733;SDS011;36701;51.798;19.474;2023-04-12T04:30:44;19.75;;;10.73;;
50733;SDS011;36701;51.798;19.474;2023-04-12T04:33:11;23.30;;;11.55;;
50733;SDS011;36701;51.798;19.474;2023-04-12T04:35:38;20.20;;;10.50;;
50733;SDS011;36701;51.798;19.474;2023-04-12T04:38:05;21.02;;;10.90;;
50733;SDS011;36701;51.798;19.474;2023-04-12T04:40:31;24.10;;;11.25;;
50733;SDS011;36701;51.798;19.474;2023-04-12T04:42:58;14.07;;;9.55;;
50733;SDS011;36701;51.798;19.474;2023-04-12T04:45:25;18.67;;;10.27;;
50733;SDS011;36701;51.798;19.474;2023-04-12T04:47:54;23.12;;;10.75;;
50733;SDS011;36701;51.798;19.474;2023-04-12T04:50:21;20.45;;;12.00;;
50733;SDS011;36701;51.798;19.474;2023-04-12T04:52:49;20.48;;;12.00;;
50733;SDS011;36701;51.798;19.474;2023-04-12T04:55:19;18.45;;;11.63;;
50733;SDS011;36701;51.798;19.474;2023-04-12T04:57:46;21.48;;;11.75;;
50733;SDS011;36701;51.798;19.474;2023-04-12T05:00:13;22.73;;;12.13;;
50733;SDS011;36701;51.798;19.474;2023-04-12T05:02:39;18.73;;;10.80;;
50733;SDS011;36701;51.798;19.474;2023-04-12T05:05:09;20.83;;;11.12;;
50733;SDS011;36701;51.798;19.474;2023-04-12T05:07:36;17.25;;;9.57;;
50733;SDS011;36701;51.798;19.474;2023-04-12T05:10:03;19.75;;;10.68;;
50733;SDS011;36701;51.798;19.474;2023-04-12T05:12:30;21.98;;;12.05;;
50733;SDS011;36701;51.798;19.474;2023-04-12T05:14:57;20.30;;;10.45;;
50733;SDS011;36701;51.798;19.474;2023-04-12T05:17:23;15.52;;;9.95;;
50733;SDS011;36701;51.798;19.474;2023-04-12T05:19:49;18.08;;;10.10;;
50733;SDS011;36701;51.798;19.474;2023-04-12T05:22:16;15.77;;;9.55;;
50733;SDS011;36701;51.798;19.474;2023-04-12T05:24:48;15.45;;;9.40;;
50733;SDS011;36701;51.798;19.474;2023-04-12T05:27:14;18.33;;;9.95;;
50733;SDS011;36701;51.798;19.474;2023-04-12T05:29:42;18.45;;;10.52;;
50733;SDS011;36701;51.798;19.474;2023-04-12T05:32:09;16.77;;;9.75;;
50733;SDS011;36701;51.798;19.474;2023-04-12T05:34:36;14.98;;;10.15;;
50733;SDS011;36701;51.798;19.474;2023-04-12T05:37:02;16.58;;;10.20;;
50733;SDS011;36701;51.798;19.474;2023-04-12T05:39:30;17.70;;;10.70;;
50733;SDS011;36701;51.798;19.474;2023-04-12T05:41:56;12.93;;;8.43;;
50733;SDS011;36701;51.798;19.474;2023-04-12T05:44:24;15.98;;;9.88;;
50733;SDS011;36701;51.798;19.474;2023-04-12T05:46:51;23.08;;;10.63;;
50733;SDS011;36701;51.798;19.474;2023-04-12T05:49:17;16.17;;;10.77;;
50733;SDS011;36701;51.798;19.474;2023-04-12T05:51:50;21.23;;;11.23;;
50733;SDS011;36701;51.798;19.474;2023-04-12T05:54:17;20.17;;;12.52;;
50733;SDS011;36701;51.798;19.474;2023-04-12T05:56:46;15.32;;;10.13;;
50733;SDS011;36701;51.798;19.474;2023-04-12T05:59:12;17.58;;;10.98;;
50733;SDS011;36701;51.798;19.474;2023-04-12T06:01:38;16.35;;;9.70;;
50733;SDS011;36701;51.798;19.474;2023-04-12T06:04:07;14.85;;;9.48;;
50733;SDS011;36701;51.798;19.474;2023-04-12T06:06:33;18.45;;;11.18;;
50733;SDS011;36701;51.798;19.474;2023-04-12T06:09:01;18.90;;;10.98;;
50733;SDS011;36701;51.798;19.474;2023-04-12T06:11:27;16.90;;;11.07;;
50733;SDS011;36701;51.798;19.474;2023-04-12T06:13:54;16.67;;;9.68;;
50733;SDS011;36701;51.798;19.474;2023-04-12T06:16:20;19.95;;;10.52;;
50733;SDS011;36701;51.798;19.474;2023-04-12T06:18:47;17.75;;;9.02;;
50733;SDS011;36701;51.798;19.474;2023-04-12T06:21:13;21.02;;;10.43;;
50733;SDS011;36701;51.798;19.474;2023-04-12T06:23:40;14.98;;;9.98;;
50733;SDS011;36701;51.798;19.474;2023-04-12T06:26:06;18.62;;;10.35;;
50733;SDS011;36701;51.798;19.474;2023-04-12T06:28:32;15.93;;;10.45;;
50733;SDS011;36701;51.798;19.474;2023-04-12T06:30:58;19.95;;;10.88;;
50733;SDS011;36701;51.798;19.474;2023-04-12T06:33:25;15.45;;;8.88;;
50733;SDS011;36701;51.798;19.474;2023-04-12T06:35:52;16.65;;;10.35;;
50733;SDS011;36701;51.798;19.474;2023-04-12T06:38:18;15.43;;;9.30;;
50733;SDS011;36701;51.798;19.474;2023-04-12T06:40:44;23.08;;;10.85;;
50733;SDS011;36701;51.798;19.474;2023-04-12T06:43:11;23.25;;;10.38;;
50733;SDS011;36701;51.798;19.474;2023-04-12T06:45:43;16.00;;;10.18;;
50733;SDS011;36701;51.798;19.474;2023-04-12T06:48:10;20.98;;;10.27;;
50733;SDS011;36701;51.798;19.474;2023-04-12T06:50:36;19.75;;;10.45;;
50733;SDS011;36701;51.798;19.474;2023-04-12T06:53:02;18.30;;;11.10;;
50733;SDS011;36701;51.798;19.474;2023-04-12T06:55:28;18.98;;;10.32;;
50733;SDS011;36701;51.798;19.474;2023-04-12T06:57:54;20.27;;;9.75;;
50733;SDS011;36701;51.798;19.474;2023-04-12T07:00:21;16.10;;;10.07;;
50733;SDS011;36701;51.798;19.474;2023-04-12T07:02:47;17.12;;;10.15;;
50733;SDS011;36701;51.798;19.474;2023-04-12T07:05:13;18.67;;;10.40;;
50733;SDS011;36701;51.798;19.474;2023-04-12T07:07:40;18.45;;;9.80;;
50733;SDS011;36701;51.798;19.474;2023-04-12T07:10:06;14.80;;;9.25;;
50733;SDS011;36701;51.798;19.474;2023-04-12T07:12:32;15.82;;;9.48;;
50733;SDS011;36701;51.798;19.474;2023-04-12T07:14:58;17.05;;;10.35;;
50733;SDS011;36701;51.798;19.474;2023-04-12T07:17:25;20.88;;;9.82;;
50733;SDS011;36701;51.798;19.474;2023-04-12T07:19:53;19.58;;;10.77;;
50733;SDS011;36701;51.798;19.474;2023-04-12T07:22:20;18.77;;;11.07;;
50733;SDS011;36701;51.798;19.474;2023-04-12T07:24:47;20.60;;;12.13;;
50733;SDS011;36701;51.798;19.474;2023-04-12T07:27:13;21.17;;;12.37;;
50733;SDS011;36701;51.798;19.474;2023-04-12T07:29:39;20.58;;;11.07;;
50733;SDS011;36701;51.798;19.474;2023-04-12T07:32:06;14.98;;;10.88;;
50733;SDS011;36701;51.798;19.474;2023-04-12T07:34:32;18.27;;;10.35;;
50733;SDS011;36701;51.798;19.474;2023-04-12T07:36:58;17.40;;;10.52;;
50733;SDS011;36701;51.798;19.474;2023-04-12T07:39:26;22.08;;;12.35;;
50733;SDS011;36701;51.798;19.474;2023-04-12T07:41:54;16.08;;;10.00;;
50733;SDS011;36701;51.798;19.474;2023-04-12T07:44:20;16.37;;;9.63;;
50733;SDS011;36701;51.798;19.474;2023-04-12T07:46:47;14.70;;;9.32;;
50733;SDS011;36701;51.798;19.474;2023-04-12T07:49:13;17.30;;;9.13;;
50733;SDS011;36701;51.798;19.474;2023-04-12T07:51:39;15.90;;;7.82;;
50733;SDS011;36701;51.798;19.474;2023-04-12T07:54:07;13.93;;;8.63;;
50733;SDS011;36701;51.798;19.474;2023-04-12T07:56:34;16.15;;;8.48;;
50733;SDS011;36701;51.798;19.474;2023-04-12T07:59:02;11.68;;;7.75;;
50733;SDS011;36701;51.798;19.474;2023-04-12T08:01:29;17.08;;;7.53;;
50733;SDS011;36701;51.798;19.474;2023-04-12T08:03:56;14.00;;;7.93;;
50733;SDS011;36701;51.798;19.474;2023-04-12T08:06:22;11.80;;;8.10;;
50733;SDS011;36701;51.798;19.474;2023-04-12T08:08:48;11.68;;;7.62;;
50733;SDS011;36701;51.798;19.474;2023-04-12T08:11:14;13.52;;;8.93;;
50733;SDS011;36701;51.798;19.474;2023-04-12T08:13:41;13.30;;;7.85;;
50733;SDS011;36701;51.798;19.474;2023-04-12T08:16:07;11.35;;;7.82;;
50733;SDS011;36701;51.798;19.474;2023-04-12T08:18:33;23.05;;;7.00;;
50733;SDS011;36701;51.798;19.474;2023-04-12T08:21:00;14.95;;;7.10;;
50733;SDS011;36701;51.798;19.474;2023-04-12T08:23:26;25.23;;;7.60;;
50733;SDS011;36701;51.798;19.474;2023-04-12T08:25:53;8.02;;;5.53;;
50733;SDS011;36701;51.798;19.474;2023-04-12T08:28:28;9.73;;;5.95;;
50733;SDS011;36701;51.798;19.474;2023-04-12T08:30:54;14.60;;;6.43;;
50733;SDS011;36701;51.798;19.474;2023-04-12T08:33:20;8.93;;;5.57;;
50733;SDS011;36701;51.798;19.474;2023-04-12T08:35:47;10.27;;;5.40;;
50733;SDS011;36701;51.798;19.474;2023-04-12T08:38:13;7.95;;;5.75;;
50733;SDS011;36701;51.798;19.474;2023-04-12T08:40:46;8.98;;;5.93;;
50733;SDS011;36701;51.798;19.474;2023-04-12T08:43:12;7.85;;;5.20;;
50733;SDS011;36701;51.798;19.474;2023-04-12T08:45:42;8.80;;;5.47;;
50733;SDS011;36701;51.798;19.474;2023-04-12T08:48:08;12.65;;;6.30;;
50733;SDS011;36701;51.798;19.474;2023-04-12T08:50:35;7.78;;;5.68;;
50733;SDS011;36701;51.798;19.474;2023-04-12T08:53:02;9.25;;;6.53;;
50733;SDS011;36701;51.798;19.474;2023-04-12T08:55:29;8.88;;;5.32;;
50733;SDS011;36701;51.798;19.474;2023-04-12T08:57:55;7.90;;;5.20;;
50733;SDS011;36701;51.798;19.474;2023-04-12T09:00:22;7.87;;;6.30;;
50733;SDS011;36701;51.798;19.474;2023-04-12T09:02:48;10.07;;;6.85;;
50733;SDS011;36701;51.798;19.474;2023-04-12T09:05:14;11.65;;;7.80;;
50733;SDS011;36701;51.798;19.474;2023-04-12T09:07:41;10.45;;;6.10;;
50733;SDS011;36701;51.798;19.474;2023-04-12T09:10:07;11.15;;;5.70;;
50733;SDS011;36701;51.798;19.474;2023-04-12T09:12:33;11.32;;;7.50;;
50733;SDS011;36701;51.798;19.474;2023-04-12T09:15:04;15.00;;;7.10;;
50733;SDS011;36701;51.798;19.474;2023-04-12T09:17:33;9.40;;;6.62;;
50733;SDS011;36701;51.798;19.474;2023-04-12T09:20:02;11.63;;;7.22;;
50733;SDS011;36701;51.798;19.474;2023-04-12T09:22:33;10.02;;;6.65;;
50733;SDS011;36701;51.798;19.474;2023-04-12T09:24:59;16.33;;;7.25;;
50733;SDS011;36701;51.798;19.474;2023-04-12T09:27:26;9.35;;;6.25;;
50733;SDS011;36701;51.798;19.474;2023-04-12T09:30:07;8.45;;;6.22;;
50733;SDS011;36701;51.798;19.474;2023-04-12T09:32:34;11.10;;;6.65;;
50733;SDS011;36701;51.798;19.474;2023-04-12T09:35:01;11.20;;;6.32;;
50733;SDS011;36701;51.798;19.474;2023-04-12T09:37:27;13.02;;;6.10;;
50733;SDS011;36701;51.798;19.474;2023-04-12T09:40:01;9.77;;;6.50;;
50733;SDS011;36701;51.798;19.474;2023-04-12T09:42:27;8.82;;;5.60;;
50733;SDS011;36701;51.798;19.474;2023-04-12T09:44:55;10.98;;;6.90;;
50733;SDS011;36701;51.798;19.474;2023-04-12T09:47:21;16.60;;;6.90;;
50733;SDS011;36701;51.798;19.474;2023-04-12T09:49:47;9.02;;;6.47;;
50733;SDS011;36701;51.798;19.474;2023-04-12T09:52:14;6.12;;;4.78;;
50733;SDS011;36701;51.798;19.474;2023-04-12T09:54:44;6.55;;;5.35;;
50733;SDS011;36701;51.798;19.474;2023-04-12T09:57:10;19.45;;;5.62;;
50733;SDS011;36701;51.798;19.474;2023-04-12T09:59:38;16.52;;;5.28;;
50733;SDS011;36701;51.798;19.474;2023-04-12T10:02:14;15.35;;;6.40;;
50733;SDS011;36701;51.798;19.474;2023-04-12T10:04:42;11.75;;;5.70;;
50733;SDS011;36701;51.798;19.474;2023-04-12T10:07:08;8.10;;;5.25;;
50733;SDS011;36701;51.798;19.474;2023-04-12T10:09:38;6.30;;;4.60;;
50733;SDS011;36701;51.798;19.474;2023-04-12T10:12:06;7.37;;;5.28;;
50733;SDS011;36701;51.798;19.474;2023-04-12T10:14:33;7.30;;;4.97;;
50733;SDS011;36701;51.798;19.474;2023-04-12T10:17:00;8.82;;;4.85;;
50733;SDS011;36701;51.798;19.474;2023-04-12T10:19:27;6.50;;;4.97;;
50733;SDS011;36701;51.798;19.474;2023-04-12T10:21:54;11.93;;;4.97;;
50733;SDS011;36701;51.798;19.474;2023-04-12T10:24:21;8.68;;;5.28;;
50733;SDS011;36701;51.798;19.474;2023-04-12T10:26:48;7.32;;;5.80;;
50733;SDS011;36701;51.798;19.474;2023-04-12T10:29:25;4.95;;;4.35;;
50733;SDS011;36701;51.798;19.474;2023-04-12T10:31:52;5.90;;;4.28;;
50733;SDS011;36701;51.798;19.474;2023-04-12T10:34:28;7.68;;;4.80;;
50733;SDS011;36701;51.798;19.474;2023-04-12T10:36:58;7.68;;;3.95;;
50733;SDS011;36701;51.798;19.474;2023-04-12T10:39:38;5.80;;;4.07;;
50733;SDS011;36701;51.798;19.474;2023-04-12T10:42:17;6.90;;;4.35;;
50733;SDS011;36701;51.798;19.474;2023-04-12T10:44:44;11.07;;;4.10;;
50733;SDS011;36701;51.798;19.474;2023-04-12T10:47:10;4.10;;;3.70;;
50733;SDS011;36701;51.798;19.474;2023-04-12T10:49:37;4.62;;;3.35;;
50733;SDS011;36701;51.798;19.474;2023-04-12T10:54:31;4.05;;;3.62;;
50733;SDS011;36701;51.798;19.474;2023-04-12T10:56:57;5.45;;;3.67;;
50733;SDS011;36701;51.798;19.474;2023-04-12T10:59:23;9.68;;;4.20;;
50733;SDS011;36701;51.798;19.474;2023-04-12T11:04:32;7.55;;;4.60;;
50733;SDS011;36701;51.798;19.474;2023-04-12T11:06:59;8.40;;;4.72;;
50733;SDS011;36701;51.798;19.474;2023-04-12T11:09:28;6.40;;;4.72;;
50733;SDS011;36701;51.798;19.474;2023-04-12T11:14:43;9.75;;;5.35;;
50733;SDS011;36701;51.798;19.474;2023-04-12T11:19:39;7.22;;;5.45;;
50733;SDS011;36701;51.798;19.474;2023-04-12T11:22:06;13.02;;;5.70;;
50733;SDS011;36701;51.798;19.474;2023-04-12T11:24:36;8.68;;;5.68;;
50733;SDS011;36701;51.798;19.474;2023-04-12T11:27:02;7.35;;;4.97;;
50733;SDS011;36701;51.798;19.474;2023-04-12T11:29:29;9.23;;;4.85;;
50733;SDS011;36701;51.798;19.474;2023-04-12T11:31:57;13.27;;;5.40;;
50733;SDS011;36701;51.798;19.474;2023-04-12T11:34:24;12.85;;;6.00;;
50733;SDS011;36701;51.798;19.474;2023-04-12T11:36:53;14.40;;;5.95;;
50733;SDS011;36701;51.798;19.474;2023-04-12T11:39:20;8.10;;;5.28;;
50733;SDS011;36701;51.798;19.474;2023-04-12T11:41:46;6.47;;;5.00;;
50733;SDS011;36701;51.798;19.474;2023-04-12T11:44:13;8.57;;;4.90;;
50733;SDS011;36701;51.798;19.474;2023-04-12T11:46:40;13.35;;;5.72;;
50733;SDS011;36701;51.798;19.474;2023-04-12T11:49:06;10.52;;;5.82;;
50733;SDS011;36701;51.798;19.474;2023-04-12T11:51:32;7.82;;;4.80;;
50733;SDS011;36701;51.798;19.474;2023-04-12T11:54:00;10.55;;;5.75;;
50733;SDS011;36701;51.798;19.474;2023-04-12T11:56:27;9.00;;;5.80;;
50733;SDS011;36701;51.798;19.474;2023-04-12T11:58:53;7.90;;;5.57;;
50733;SDS011;36701;51.798;19.474;2023-04-12T12:01:19;7.07;;;5.10;;
50733;SDS011;36701;51.798;19.474;2023-04-12T12:03:48;7.68;;;5.32;;
50733;SDS011;36701;51.798;19.474;2023-04-12T12:06:15;12.93;;;5.40;;
50733;SDS011;36701;51.798;19.474;2023-04-12T12:08:42;10.15;;;5.65;;
50733;SDS011;36701;51.798;19.474;2023-04-12T12:11:09;7.68;;;5.43;;
50733;SDS011;36701;51.798;19.474;2023-04-12T12:13:44;16.40;;;6.50;;
50733;SDS011;36701;51.798;19.474;2023-04-12T12:16:11;13.27;;;6.95;;
50733;SDS011;36701;51.798;19.474;2023-04-12T12:18:39;16.77;;;6.80;;
50733;SDS011;36701;51.798;19.474;2023-04-12T12:21:07;11.35;;;5.85;;
50733;SDS011;36701;51.798;19.474;2023-04-12T12:23:34;7.28;;;6.10;;
50733;SDS011;36701;51.798;19.474;2023-04-12T12:26:01;9.52;;;5.62;;
50733;SDS011;36701;51.798;19.474;2023-04-12T12:28:29;8.27;;;5.12;;
50733;SDS011;36701;51.798;19.474;2023-04-12T12:30:58;9.60;;;5.12;;
50733;SDS011;36701;51.798;19.474;2023-04-12T12:33:24;8.45;;;4.72;;
50733;SDS011;36701;51.798;19.474;2023-04-12T12:36:00;9.82;;;5.95;;
50733;SDS011;36701;51.798;19.474;2023-04-12T12:38:33;9.70;;;5.78;;
50733;SDS011;36701;51.798;19.474;2023-04-12T12:41:12;8.57;;;5.43;;
50733;SDS011;36701;51.798;19.474;2023-04-12T12:43:42;9.75;;;5.95;;
50733;SDS011;36701;51.798;19.474;2023-04-12T12:46:09;7.65;;;5.15;;
50733;SDS011;36701;51.798;19.474;2023-04-12T12:48:39;8.95;;;4.72;;
50733;SDS011;36701;51.798;19.474;2023-04-12T12:51:05;9.75;;;6.65;;
50733;SDS011;36701;51.798;19.474;2023-04-12T12:53:31;9.25;;;5.95;;
50733;SDS011;36701;51.798;19.474;2023-04-12T12:55:57;13.93;;;5.90;;
50733;SDS011;36701;51.798;19.474;2023-04-12T12:58:23;11.48;;;6.15;;
50733;SDS011;36701;51.798;19.474;2023-04-12T13:00:50;9.10;;;6.20;;
50733;SDS011;36701;51.798;19.474;2023-04-12T13:03:16;8.45;;;5.82;;
50733;SDS011;36701;51.798;19.474;2023-04-12T13:05:42;10.20;;;6.28;;
50733;SDS011;36701;51.798;19.474;2023-04-12T13:08:09;10.45;;;5.50;;
50733;SDS011;36701;51.798;19.474;2023-04-12T13:10:35;7.28;;;5.90;;
50733;SDS011;36701;51.798;19.474;2023-04-12T13:13:07;9.45;;;5.90;;
50733;SDS011;36701;51.798;19.474;2023-04-12T13:15:34;10.98;;;6.32;;
50733;SDS011;36701;51.798;19.474;2023-04-12T13:18:00;8.82;;;5.43;;
50733;SDS011;36701;51.798;19.474;2023-04-12T13:20:26;6.95;;;5.15;;
50733;SDS011;36701;51.798;19.474;2023-04-12T13:22:53;6.68;;;5.00;;
50733;SDS011;36701;51.798;19.474;2023-04-12T13:25:19;10.20;;;6.22;;
50733;SDS011;36701;51.798;19.474;2023-04-12T13:27:47;5.70;;;4.70;;
50733;SDS011;36701;51.798;19.474;2023-04-12T13:30:13;15.80;;;5.28;;
50733;SDS011;36701;51.798;19.474;2023-04-12T13:32:40;8.65;;;5.00;;
50733;SDS011;36701;51.798;19.474;2023-04-12T13:35:06;6.20;;;4.47;;
50733;SDS011;36701;51.798;19.474;2023-04-12T13:37:32;12.32;;;4.82;;
50733;SDS011;36701;51.798;19.474;2023-04-12T13:39:59;11.55;;;6.35;;
50733;SDS011;36701;51.798;19.474;2023-04-12T13:42:25;13.50;;;5.45;;
50733;SDS011;36701;51.798;19.474;2023-04-12T13:44:52;6.45;;;5.32;;
50733;SDS011;36701;51.798;19.474;2023-04-12T13:47:18;12.37;;;5.22;;
50733;SDS011;36701;51.798;19.474;2023-04-12T13:49:44;9.52;;;5.20;;
50733;SDS011;36701;51.798;19.474;2023-04-12T13:52:11;14.02;;;5.43;;
50733;SDS011;36701;51.798;19.474;2023-04-12T13:54:37;19.62;;;6.00;;
50733;SDS011;36701;51.798;19.474;2023-04-12T13:57:04;10.77;;;6.30;;
50733;SDS011;36701;51.798;19.474;2023-04-12T13:59:30;7.45;;;5.20;;
50733;SDS011;36701;51.798;19.474;2023-04-12T14:01:57;6.82;;;4.95;;
50733;SDS011;36701;51.798;19.474;2023-04-12T14:04:25;8.00;;;4.65;;
50733;SDS011;36701;51.798;19.474;2023-04-12T14:06:52;7.47;;;4.43;;
50733;SDS011;36701;51.798;19.474;2023-04-12T14:09:25;8.23;;;4.93;;
50733;SDS011;36701;51.798;19.474;2023-04-12T14:11:51;8.50;;;5.78;;
50733;SDS011;36701;51.798;19.474;2023-04-12T14:14:19;9.93;;;5.25;;
50733;SDS011;36701;51.798;19.474;2023-04-12T14:16:48;10.63;;;6.50;;
50733;SDS011;36701;51.798;19.474;2023-04-12T14:19:14;21.55;;;5.78;;
50733;SDS011;36701;51.798;19.474;2023-04-12T14:21:41;9.68;;;5.80;;
50733;SDS011;36701;51.798;19.474;2023-04-12T14:24:07;13.35;;;5.93;;
50733;SDS011;36701;51.798;19.474;2023-04-12T14:26:34;12.02;;;5.45;;
50733;SDS011;36701;51.798;19.474;2023-04-12T14:29:00;9.70;;;5.87;;
50733;SDS011;36701;51.798;19.474;2023-04-12T14:31:26;9.65;;;6.53;;
50733;SDS011;36701;51.798;19.474;2023-04-12T14:33:52;12.52;;;6.82;;
50733;SDS011;36701;51.798;19.474;2023-04-12T14:36:20;8.77;;;5.55;;
50733;SDS011;36701;51.798;19.474;2023-04-12T14:38:47;9.02;;;5.85;;
50733;SDS011;36701;51.798;19.474;2023-04-12T14:41:16;8.05;;;5.70;;
50733;SDS011;36701;51.798;19.474;2023-04-12T14:43:42;8.63;;;5.53;;
50733;SDS011;36701;51.798;19.474;2023-04-12T14:46:09;12.68;;;6.20;;
50733;SDS011;36701;51.798;19.474;2023-04-12T14:48:35;11.45;;;6.65;;
50733;SDS011;36701;51.798;19.474;2023-04-12T14:51:02;7.72;;;5.70;;
50733;SDS011;36701;51.798;19.474;2023-04-12T14:53:29;10.00;;;6.32;;
50733;SDS011;36701;51.798;19.474;2023-04-12T14:55:56;10.05;;;5.75;;
50733;SDS011;36701;51.798;19.474;2023-04-12T14:58:22;9.75;;;5.72;;
50733;SDS011;36701;51.798;19.474;2023-04-12T15:00:48;12.50;;;5.75;;
50733;SDS011;36701;51.798;19.474;2023-04-12T15:03:15;7.25;;;5.10;;
50733;SDS011;36701;51.798;19.474;2023-04-12T15:05:41;11.25;;;5.60;;
50733;SDS011;36701;51.798;19.474;2023-04-12T15:08:07;11.85;;;5.78;;
50733;SDS011;36701;51.798;19.474;2023-04-12T15:10:33;14.63;;;6.30;;
50733;SDS011;36701;51.798;19.474;2023-04-12T15:12:59;9.73;;;4.90;;
50733;SDS011;36701;51.798;19.474;2023-04-12T15:15:26;10.27;;;5.43;;
50733;SDS011;36701;51.798;19.474;2023-04-12T15:17:52;7.82;;;5.80;;
50733;SDS011;36701;51.798;19.474;2023-04-12T15:20:18;12.45;;;7.47;;
50733;SDS011;36701;51.798;19.474;2023-04-12T15:22:44;10.50;;;5.37;;
50733;SDS011;36701;51.798;19.474;2023-04-12T15:25:11;11.65;;;5.97;;
50733;SDS011;36701;51.798;19.474;2023-04-12T15:27:37;11.02;;;6.15;;
50733;SDS011;36701;51.798;19.474;2023-04-12T15:30:03;8.30;;;5.07;;
50733;SDS011;36701;51.798;19.474;2023-04-12T15:32:30;10.05;;;5.03;;
50733;SDS011;36701;51.798;19.474;2023-04-12T15:35:02;7.65;;;5.43;;
50733;SDS011;36701;51.798;19.474;2023-04-12T15:37:31;7.28;;;5.45;;
50733;SDS011;36701;51.798;19.474;2023-04-12T15:39:59;6.65;;;4.45;;
50733;SDS011;36701;51.798;19.474;2023-04-12T15:42:26;6.72;;;4.97;;
50733;SDS011;36701;51.798;19.474;2023-04-12T15:44:52;10.00;;;6.05;;
50733;SDS011;36701;51.798;19.474;2023-04-12T15:47:18;7.12;;;5.20;;
50733;SDS011;36701;51.798;19.474;2023-04-12T15:49:45;6.87;;;4.97;;
50733;SDS011;36701;51.798;19.474;2023-04-12T15:52:12;21.70;;;5.80;;
50733;SDS011;36701;51.798;19.474;2023-04-12T15:54:38;9.25;;;4.45;;
50733;SDS011;36701;51.798;19.474;2023-04-12T15:57:07;11.32;;;5.35;;
50733;SDS011;36701;51.798;19.474;2023-04-12T15:59:34;7.05;;;5.35;;
50733;SDS011;36701;51.798;19.474;2023-04-12T16:02:02;10.77;;;5.30;;
50733;SDS011;36701;51.798;19.474;2023-04-12T16:04:32;6.95;;;5.40;;
50733;SDS011;36701;51.798;19.474;2023-04-12T16:06:58;7.10;;;5.30;;
50733;SDS011;36701;51.798;19.474;2023-04-12T16:09:27;8.85;;;5.03;;
50733;SDS011;36701;51.798;19.474;2023-04-12T16:11:54;7.43;;;5.55;;
50733;SDS011;36701;51.798;19.474;2023-04-12T16:14:20;7.90;;;4.80;;
50733;SDS011;36701;51.798;19.474;2023-04-12T16:16:46;11.50;;;5.43;;
50733;SDS011;36701;51.798;19.474;2023-04-12T16:19:13;8.05;;;5.80;;
50733;SDS011;36701;51.798;19.474;2023-04-12T16:21:39;10.27;;;5.60;;
50733;SDS011;36701;51.798;19.474;2023-04-12T16:24:12;10.55;;;6.10;;
50733;SDS011;36701;51.798;19.474;2023-04-12T16:26:39;7.22;;;5.15;;
50733;SDS011;36701;51.798;19.474;2023-04-12T16:29:06;10.70;;;6.22;;
50733;SDS011;36701;51.798;19.474;2023-04-12T16:31:33;13.52;;;6.75;;